sim
Sign-in with your pilot id or email,
or register
Callsign
Passwort

Schedule Details

Flight Number: OEO7020
Departure: Frankfurt Airport (EDDF) at 11:20
Arrival: Mumbai Chhatrapati Shivaji International Airport (VABB) at 19:20

Weather Information
Getting current METAR information for EDDF 191750Z 26007KT CAVOK 23/09 Q1018 NOSIG
Getting current METAR information for VABB 191730Z 24007KT 3500 HZ SCT020 28/25 Q1010 NOSIG

Schedule Frequency

Route Map